Главная страница
METAR-TAF:

METAR-TAF

Аэропорты :

Дашогуз, Туркмения

широта: 41-45-53N, долгота: 059-49-59E, высота над уровнем моря: 83 м

Текущие метеонаблюдения

Эта сводка был подготовлена 47 минут назад, в 01:00 UTC
Ветер 4 Узел от северный
Температура 23°C
Влажность 57%
Давление 1010 hPa
Видимость 10 км и более
Нет облачности ниже 1500 м, и нет кучево-дождевой облачности

METAR: UTAT 150100Z 36004KT CAVOK 23/14 Q1010 NOSIG

Время: 06:47 (01:47 UTC)

Прогноз

Эта сводка был подготовлена 3 часа и 5 минут назад, в 22:42 UTC
Прогноз действительный с 15-го 00 UTC до 15-го 24 UTC
Ветер 12 Узел от северо-северо-восточный
Видимость 10 км и более
Отдельные облака на высоте 5000 фута
Рассеянная облачность на высоте 10000 фута
временами
С 15-го 00 UTC до 15-го 06 UTC
Ветер 14 Узел от северно-северо-западный

TAF: UTAT 142242Z 1500/1524 03012KT 9999 SCT050 BKN100 530005 TEMPO 1500/1506 33014KT

Метеонаблюдения и прогнозы для более 4000 аэропортов (сводки METAR и TAF).

Имеющиеся станции представлены на карте желтыми и красными точками.

Чтобы увидеть название станции, наведите на нее мышь.

Затем щелкните, чтобы увидеть метеонаблюдения и метеопрогнозы.

Управление картой: чтобы увеличить масштаб, щелкните зеленые кнопки с черным крестиком; чтобы уменьшить масштаб, щелкните зеленую кнопку с тире; для просмотра соседних карт щелкайте зеленые стрелки.


METAR-TAF: